createdAt,value
2023-01-09T00:04:44.109Z,2.90
2023-01-09T00:09:46.975Z,2.42
2023-01-09T00:14:49.791Z,2.70
2023-01-09T00:19:53.997Z,2.38
2023-01-09T00:24:56.710Z,2.20
2023-01-09T00:29:59.665Z,2.05
2023-01-09T00:35:04.118Z,2.30
2023-01-09T00:40:07.476Z,2.47
2023-01-09T00:45:12.802Z,2.38
2023-01-09T00:50:24.793Z,2.30
2023-01-09T00:55:27.594Z,2.75
2023-01-09T01:00:30.503Z,3.55
2023-01-09T01:05:48.475Z,3.17
2023-01-09T01:10:51.345Z,3.50
2023-01-09T01:15:54.134Z,3.05
2023-01-09T01:20:58.259Z,3.70
2023-01-09T01:26:05.730Z,6.90
2023-01-09T01:31:08.562Z,4.75
2023-01-09T01:36:12.845Z,3.60
2023-01-09T01:41:29.226Z,2.75
2023-01-09T01:46:34.040Z,2.50
2023-01-09T01:51:41.495Z,2.10
2023-01-09T01:56:46.118Z,3.05
2023-01-09T02:01:51.796Z,4.82
2023-01-09T02:06:57.450Z,2.60
2023-01-09T02:12:01.253Z,2.42
2023-01-09T02:17:10.838Z,2.17
2023-01-09T02:22:21.267Z,3.00
2023-01-09T02:27:52.248Z,2.50
2023-01-09T02:33:13.662Z,2.60
2023-01-09T02:38:23.460Z,2.00
2023-01-09T02:43:26.621Z,2.47
2023-01-09T02:48:31.785Z,2.83
2023-01-09T02:53:48.099Z,2.00
2023-01-09T02:59:17.528Z,1.73
2023-01-09T03:04:28.575Z,2.60
2023-01-09T03:09:37.007Z,2.53
2023-01-09T03:14:44.381Z,1.90
2023-01-09T03:19:49.765Z,2.42
2023-01-09T03:24:52.480Z,2.85
2023-01-09T03:29:56.580Z,2.92
2023-01-09T03:35:01.838Z,3.65
2023-01-09T03:40:05.246Z,2.15
2023-01-09T03:45:08.451Z,1.98
2023-01-09T03:50:13.021Z,2.10
2023-01-09T03:55:15.896Z,1.80
2023-01-09T04:00:19.584Z,1.48
2023-01-09T04:05:23.900Z,1.52
2023-01-09T04:10:26.683Z,1.60
2023-01-09T04:15:29.441Z,3.25
2023-01-09T04:20:33.641Z,1.70
2023-01-09T04:25:36.382Z,1.65
2023-01-09T04:30:39.170Z,2.58
2023-01-09T04:35:43.272Z,2.03
2023-01-09T04:40:47.917Z,2.95
2023-01-09T04:45:50.721Z,1.77
2023-01-09T04:50:54.903Z,2.45
2023-01-09T04:55:57.638Z,2.17
2023-01-09T05:01:00.443Z,1.80
2023-01-09T05:06:05.018Z,2.22
2023-01-09T05:11:07.884Z,2.28
2023-01-09T05:16:10.869Z,2.03
2023-01-09T05:21:15.074Z,2.42
2023-01-09T05:26:17.776Z,2.47
2023-01-09T05:31:21.453Z,2.60
2023-01-09T05:36:25.697Z,2.30
2023-01-09T05:41:28.464Z,3.75
2023-01-09T05:46:31.131Z,2.35
2023-01-09T05:51:35.214Z,1.92
2023-01-09T05:56:37.913Z,1.80
2023-01-09T06:01:40.719Z,2.03
2023-01-09T06:06:44.846Z,1.40
2023-01-09T06:11:47.839Z,1.77
2023-01-09T06:16:51.221Z,2.10
2023-01-09T06:21:55.420Z,1.70
2023-01-09T06:26:58.213Z,2.22
2023-01-09T06:32:00.924Z,2.42
2023-01-09T06:37:05.117Z,2.45
2023-01-09T06:42:08.245Z,1.83
2023-01-09T06:47:10.998Z,2.03
2023-01-09T06:52:15.058Z,2.25
2023-01-09T06:57:17.789Z,2.97
2023-01-09T07:02:22.343Z,2.55
2023-01-09T07:07:26.561Z,2.25
2023-01-09T07:12:29.476Z,2.20
2023-01-09T07:17:32.741Z,2.30
2023-01-09T07:22:36.981Z,2.70
2023-01-09T07:27:39.974Z,2.08
2023-01-09T07:32:42.929Z,3.58
2023-01-09T07:37:47.691Z,2.17
2023-01-09T07:42:50.497Z,2.40
2023-01-09T07:47:53.234Z,2.60
2023-01-09T07:52:57.384Z,3.20
2023-01-09T07:58:00.117Z,5.65
2023-01-09T08:03:02.951Z,2.30
2023-01-09T08:08:07.497Z,2.15
2023-01-09T08:13:10.339Z,2.10
2023-01-09T08:18:13.120Z,2.00
2023-01-09T08:23:17.265Z,1.58
2023-01-09T08:28:20.074Z,3.22
2023-01-09T08:33:22.893Z,1.40
2023-01-09T08:38:27.003Z,1.52
2023-01-09T08:43:47.127Z,1.80
2023-01-09T08:48:49.874Z,1.35
2023-01-09T08:53:53.961Z,0.60
2023-01-09T08:58:56.704Z,0.50
2023-01-09T09:03:59.425Z,1.40
2023-01-09T09:09:03.868Z,0.20
2023-01-09T09:14:26.860Z,0.40
2023-01-09T09:19:29.580Z,0.20
2023-01-09T09:24:33.636Z,0.55
2023-01-09T09:29:36.418Z,1.75
2023-01-09T09:34:39.216Z,1.38
2023-01-09T09:39:43.418Z,0.30
2023-01-09T09:44:59.130Z,0.30
2023-01-09T09:50:07.723Z,1.10
2023-01-09T09:55:17.953Z,0.30
2023-01-09T10:00:22.109Z,0.80
2023-01-09T10:05:28.718Z,1.00
2023-01-09T10:10:36.306Z,0.80
2023-01-09T10:15:51.669Z,0.40
2023-01-09T10:20:58.546Z,0.77
2023-01-09T10:26:07.981Z,0.77
2023-01-09T10:31:16.293Z,1.20
2023-01-09T10:36:38.096Z,0.73
2023-01-09T10:41:46.213Z,0.65
2023-01-09T10:46:53.130Z,0.25
2023-01-09T10:52:05.459Z,2.40
2023-01-09T10:57:16.144Z,2.45
2023-01-09T11:02:28.719Z,0.32
2023-01-09T11:07:34.854Z,1.13
2023-01-09T11:12:40.231Z,0.95
2023-01-09T11:17:43.471Z,0.75
2023-01-09T11:22:47.670Z,0.75
2023-01-09T11:28:05.125Z,0.73
2023-01-09T11:33:15.436Z,1.80
2023-01-09T11:38:18.611Z,2.85
2023-01-09T11:43:30.746Z,0.88
2023-01-09T11:48:39.355Z,2.25
2023-01-09T11:53:47.137Z,0.70
2023-01-09T11:58:51.194Z,0.57
2023-01-09T12:04:12.998Z,0.98
2023-01-09T12:09:20.279Z,0.70
2023-01-09T12:14:32.269Z,0.55
2023-01-09T12:19:54.495Z,2.90
2023-01-09T12:25:17.697Z,1.38
2023-01-09T12:30:28.968Z,2.33
2023-01-09T12:35:36.644Z,1.92
2023-01-09T12:40:49.731Z,0.70
2023-01-09T12:46:03.766Z,2.13
2023-01-09T12:51:12.669Z,4.03
2023-01-09T12:56:18.138Z,1.30
2023-01-09T13:01:25.403Z,1.00
2023-01-09T13:06:30.013Z,2.20
2023-01-09T13:11:35.713Z,0.93
2023-01-09T13:16:43.414Z,1.58
2023-01-09T13:21:46.523Z,1.25
2023-01-09T13:26:51.937Z,1.60
2023-01-09T13:32:11.243Z,0.77
2023-01-09T13:37:22.131Z,0.30
2023-01-09T13:42:39.700Z,0.28
2023-01-09T13:47:44.248Z,0.32
2023-01-09T13:52:46.949Z,0.98
2023-01-09T13:58:25.946Z,0.28
2023-01-09T14:03:33.486Z,0.38
2023-01-09T14:08:36.267Z,1.50
2023-01-09T14:13:44.905Z,1.00
2023-01-09T14:18:51.188Z,0.82
2023-01-09T14:24:03.444Z,0.22
2023-01-09T14:29:37.904Z,0.88
2023-01-09T14:34:43.538Z,1.17
2023-01-09T14:39:47.484Z,2.13
2023-01-09T14:44:52.154Z,0.75
2023-01-09T14:49:59.696Z,0.30
2023-01-09T14:55:04.054Z,0.75
2023-01-09T15:00:16.470Z,0.45
2023-01-09T15:05:23.531Z,0.32
2023-01-09T15:10:29.982Z,1.15
2023-01-09T15:15:32.783Z,0.22
2023-01-09T15:20:37.119Z,0.57
2023-01-09T15:25:40.933Z,1.58
2023-01-09T15:30:43.936Z,0.63
2023-01-09T15:35:50.092Z,1.33
2023-01-09T15:40:54.947Z,0.47
2023-01-09T15:45:58.328Z,0.73
2023-01-09T15:51:06.708Z,1.60
2023-01-09T15:56:20.577Z,2.03
2023-01-09T16:01:29.751Z,0.57
2023-01-09T16:06:35.566Z,0.30
2023-01-09T16:11:39.536Z,1.33
2023-01-09T16:16:42.696Z,1.00
2023-01-09T16:21:57.802Z,0.20
2023-01-09T16:27:23.948Z,0.68
2023-01-09T16:32:29.559Z,1.00
2023-01-09T16:37:34.064Z,0.40
2023-01-09T16:42:54.754Z,2.70
2023-01-09T16:47:58.226Z,1.02
2023-01-09T16:53:07.525Z,0.60
2023-01-09T16:58:14.246Z,1.15
2023-01-09T17:03:19.188Z,2.22
2023-01-09T17:08:25.283Z,1.88
2023-01-09T17:13:28.162Z,3.70
2023-01-09T17:18:30.947Z,2.22
2023-01-09T17:23:35.073Z,1.08
2023-01-09T17:28:38.553Z,1.10
2023-01-09T17:33:42.056Z,1.15
2023-01-09T17:38:47.165Z,2.05
2023-01-09T17:43:50.110Z,1.15
2023-01-09T17:48:54.170Z,0.73
2023-01-09T17:53:58.576Z,0.82
2023-01-09T17:59:02.569Z,0.68
2023-01-09T18:04:05.467Z,1.75
2023-01-09T18:09:10.914Z,1.48
2023-01-09T18:14:14.080Z,1.20
2023-01-09T18:19:16.983Z,1.65
2023-01-09T18:24:21.149Z,1.20
2023-01-09T18:29:24.231Z,1.27
2023-01-09T18:34:27.002Z,0.60
2023-01-09T18:39:31.407Z,1.10
2023-01-09T18:44:34.123Z,0.60
2023-01-09T18:49:36.924Z,1.00
2023-01-09T18:54:42.646Z,0.75
2023-01-09T18:59:45.410Z,1.25
2023-01-09T19:04:48.257Z,0.93
2023-01-09T19:09:52.527Z,1.90
2023-01-09T19:14:55.698Z,2.72
2023-01-09T19:19:58.441Z,1.45
2023-01-09T19:25:02.513Z,1.50
2023-01-09T19:30:06.380Z,1.38
2023-01-09T19:35:09.915Z,0.73
2023-01-09T19:40:14.702Z,1.35
2023-01-09T19:45:17.492Z,1.42
2023-01-09T19:50:21.870Z,0.98
2023-01-09T19:55:26.005Z,1.83
2023-01-09T20:00:28.725Z,1.58
2023-01-09T20:05:31.527Z,0.98
2023-01-09T20:10:35.782Z,1.08
2023-01-09T20:15:38.776Z,1.98
2023-01-09T20:20:44.507Z,2.63
2023-01-09T20:25:48.938Z,2.47
2023-01-09T20:30:53.546Z,2.45
2023-01-09T20:35:56.347Z,1.13
2023-01-09T20:41:08.290Z,1.58
2023-01-09T20:46:11.101Z,1.13
2023-01-09T20:51:14.632Z,2.22
2023-01-09T20:56:18.919Z,2.05
2023-01-09T21:01:22.931Z,1.97
2023-01-09T21:06:26.633Z,1.23
2023-01-09T21:11:30.995Z,0.85
2023-01-09T21:16:33.833Z,0.90
2023-01-09T21:21:36.607Z,2.78
2023-01-09T21:26:40.921Z,1.58
2023-01-09T21:31:44.171Z,1.93
2023-01-09T21:36:48.749Z,1.63
2023-01-09T21:42:10.671Z,2.00
2023-01-09T21:47:13.574Z,1.02
2023-01-09T21:52:18.237Z,0.77
2023-01-09T21:57:22.556Z,1.17
2023-01-09T22:02:25.563Z,1.30
2023-01-09T22:07:28.440Z,1.25
2023-01-09T22:12:32.565Z,0.70
2023-01-09T22:17:35.328Z,0.80
2023-01-09T22:22:38.045Z,1.20
2023-01-09T22:27:42.173Z,1.10
2023-01-09T22:32:45.077Z,1.10
2023-01-09T22:37:47.998Z,1.67
2023-01-09T22:42:54.218Z,1.38
2023-01-09T22:47:56.986Z,1.77
2023-01-09T22:52:59.747Z,2.45
2023-01-09T22:58:03.818Z,0.90
2023-01-09T23:03:06.526Z,2.88
2023-01-09T23:08:09.289Z,1.33
2023-01-09T23:13:13.457Z,2.47
2023-01-09T23:18:16.277Z,3.45
2023-01-09T23:23:20.779Z,1.73
2023-01-09T23:28:25.655Z,2.08
2023-01-09T23:33:28.442Z,2.35
2023-01-09T23:38:31.419Z,3.45
2023-01-09T23:43:35.927Z,2.67
2023-01-09T23:48:38.845Z,1.40
2023-01-09T23:53:41.641Z,1.20
2023-01-09T23:58:45.738Z,1.48
